Create Tblcommutelog Verified Points Advance Search
| # | Trip ID | Id Commuter | Trip Date | Trip Num | Current Lat | Current Lng | Delta Distance | Current Time | Activity | Activity Confidence | Current Speed | |
|---|---|---|---|---|---|---|---|---|---|---|---|---|
| 69021 | 250825_786540_16654893_1539 | 786540 | (not set) | (not set) | 38.859573231214 | -77.220410763497 | 1.0123 | 2025-08-25 15:45:54 | in_vehicle | 100 | 1.5735781916368 | |
| 69022 | 250825_786540_16654893_1539 | 786540 | (not set) | (not set) | 38.799710654023 | -77.206125481394 | 5.4983 | 2025-08-25 15:52:14 | in_vehicle | 100 | 9.6828703496741 | |
| 69023 | 250825_786540_16654893_1539 | 786540 | (not set) | (not set) | 38.725372928408 | -77.203398466097 | 11.9793 | 2025-08-25 15:58:58 | in_vehicle | 100 | 13.961036058187 | |
| 69024 | 250825_786540_16654893_1539 | 786540 | (not set) | (not set) | 38.683047920761 | -77.229383480808 | 15.3522 | 2025-08-25 16:01:59 | in_vehicle | 100 | 11.752662118787 | |
| 69025 | 250825_758156_16624628_1534 | 758156 | (not set) | (not set) | 39.5437167 | -76.6665017 | 12.3832 | 2025-08-25 15:50:45 | still | 100 | 13.554230332508 | |
| 69026 | 250825_786540_16654893_1539 | 786540 | (not set) | (not set) | 38.675660514775 | -77.236515706283 | 16.0014 | 2025-08-25 16:02:34 | in_vehicle | 100 | 14.980285568679 | |
| 69027 | 250825_788077_16656633_1601 | 788077 | (not set) | (not set) | 38.792769488909 | -77.037104004636 | 2.864 | 2025-08-25 16:04:07 | unknown | 100 | 10.107557645712 | |
| 69028 | 250825_781336_16649009_1449 | 781336 | (not set) | (not set) | 38.880376535385 | -77.124776223823 | 2.7276 | 2025-08-25 16:05:38 | in_vehicle | 100 | -0.44703925898772 | |
| 69029 | 250825_758156_16624628_1534 | 758156 | (not set) | (not set) | 39.7357883 | -76.673745 | 27.7118 | 2025-08-25 16:06:49 | still | 100 | 10.331077275206 | |
| 69030 | 250825_784718_16652718_1601 | 784718 | (not set) | (not set) | 39.043979514971 | -76.991907128903 | 1.2887 | 2025-08-25 16:08:02 | in_vehicle | 100 | 8.4401012096882 | |
| 69031 | 250825_784718_16652718_1601 | 784718 | (not set) | (not set) | 39.054524095929 | -76.994822404283 | 2.0353 | 2025-08-25 16:09:41 | in_vehicle | 100 | 0 | |
| 69032 | 250825_774226_16641642_1601 | 774226 | (not set) | (not set) | 38.904521454902 | -77.023937795797 | 1.6989 | 2025-08-25 16:11:05 | in_vehicle | 100 | 4.3675735603101 | |
| 69033 | 250825_766823_16656872_1606 | 766823 | (not set) | (not set) | 38.925579554836 | -77.038225159872 | 0.2791 | 2025-08-25 16:12:10 | on_bicycle | 100 | 2.1323772653714 | |
| 69034 | 250825_780815_16648493_1613 | 780815 | (not set) | (not set) | 38.901054187482 | -77.045602495013 | 0 | 2025-08-25 16:13:11 | in_vehicle | 100 | -0.44703925898772 | |
| 69035 | 250825_780815_16648493_1613 | 780815 | (not set) | (not set) | 38.899449316667 | -77.04348675 | 0.101 | 2025-08-25 16:14:05 | in_vehicle | 100 | 4.805672034118 | |
| 69036 | 250825_785822_16656269_1601 | 785822 | (not set) | (not set) | 38.954295143051 | -76.970500297741 | 3.5674 | 2025-08-25 16:14:53 | in_vehicle | 100 | 3.9026527309628 | |
| 69037 | 250825_780815_16648493_1613 | 780815 | (not set) | (not set) | 38.89590875 | -77.049037566667 | 0.6274 | 2025-08-25 16:15:50 | in_vehicle | 100 | 6.5759474997094 | |
| 69038 | 250825_783590_16651319_1605 | 783590 | (not set) | (not set) | 39.0871431 | -77.0141948 | 4.8615 | 2025-08-25 16:16:35 | in_vehicle | 100 | 13.236832458627 | |
| 69039 | 250825_781336_16649009_1449 | 781336 | (not set) | (not set) | 38.92078475099 | -77.221555514333 | 14.9525 | 2025-08-25 16:17:16 | in_vehicle | 100 | 0 | |
| 69040 | 250825_113832_1027663_1555 | 113832 | (not set) | (not set) | 38.910098912842 | -77.044145957196 | 0.4002 | 2025-08-25 16:17:57 | in_vehicle | 100 | -0.44703925898772 |